createdAt,value
2023-05-11T00:01:33.814Z,7.72
2023-05-11T00:04:01.030Z,7.74
2023-05-11T00:06:27.865Z,7.71
2023-05-11T00:08:54.379Z,7.65
2023-05-11T00:11:21.332Z,7.62
2023-05-11T00:13:47.914Z,7.72
2023-05-11T00:16:15.016Z,7.63
2023-05-11T00:18:42.018Z,7.61
2023-05-11T00:21:08.862Z,7.62
2023-05-11T00:23:35.478Z,7.54
2023-05-11T00:26:02.156Z,7.56
2023-05-11T00:28:28.830Z,7.58
2023-05-11T00:30:57.402Z,7.59
2023-05-11T00:33:24.866Z,7.61
2023-05-11T00:35:52.057Z,7.58
2023-05-11T00:38:18.658Z,7.60
2023-05-11T00:40:45.400Z,7.63
2023-05-11T00:43:12.186Z,7.61
2023-05-11T00:45:40.321Z,7.76
2023-05-11T00:48:08.188Z,7.66
2023-05-11T00:50:36.359Z,7.71
2023-05-11T00:53:03.471Z,7.60
2023-05-11T00:55:30.785Z,7.63
2023-05-11T00:57:57.777Z,7.76
2023-05-11T01:00:24.705Z,7.63
2023-05-11T01:02:51.832Z,7.64
2023-05-11T01:05:18.690Z,7.54
2023-05-11T01:07:57.207Z,7.48
2023-05-11T01:10:47.893Z,7.57
2023-05-11T01:13:26.715Z,7.60
2023-05-11T01:15:56.440Z,7.47
2023-05-11T01:18:40.365Z,7.57
2023-05-11T01:21:15.394Z,7.52
2023-05-11T01:23:45.177Z,7.57
2023-05-11T01:26:35.008Z,7.53
2023-05-11T01:29:10.710Z,7.56
2023-05-11T01:31:40.342Z,7.52
2023-05-11T01:34:17.172Z,7.52
2023-05-11T01:36:53.431Z,7.51
2023-05-11T01:39:25.807Z,7.44
2023-05-11T01:41:55.626Z,7.45
2023-05-11T01:44:29.304Z,7.50
2023-05-11T01:46:57.664Z,7.40
2023-05-11T01:49:24.644Z,7.38
2023-05-11T01:51:52.272Z,7.32
2023-05-11T01:54:21.315Z,7.43
2023-05-11T01:56:50.818Z,7.45
2023-05-11T01:59:18.899Z,7.42
2023-05-11T02:01:46.311Z,7.39
2023-05-11T02:04:15.738Z,7.40
2023-05-11T02:06:43.969Z,7.32
2023-05-11T02:09:12.993Z,7.32
2023-05-11T02:11:41.826Z,7.30
2023-05-11T02:14:10.556Z,7.25
2023-05-11T02:16:38.799Z,7.29
2023-05-11T02:19:08.430Z,7.27
2023-05-11T02:21:38.151Z,7.22
2023-05-11T02:24:06.681Z,7.22
2023-05-11T02:26:33.247Z,7.25
2023-05-11T02:29:01.123Z,7.21
2023-05-11T02:31:30.564Z,7.21
2023-05-11T02:34:07.795Z,7.11
2023-05-11T02:36:38.817Z,7.11
2023-05-11T02:39:08.461Z,7.11
2023-05-11T02:41:42.080Z,7.12
2023-05-11T02:44:14.386Z,7.15
2023-05-11T02:46:42.964Z,7.21
2023-05-11T02:49:11.097Z,7.20
2023-05-11T02:51:41.624Z,7.19
2023-05-11T02:54:10.781Z,7.21
2023-05-11T02:56:41.658Z,7.25
2023-05-11T02:59:09.360Z,7.23
2023-05-11T03:01:37.070Z,7.20
2023-05-11T03:04:04.797Z,7.20
2023-05-11T03:06:33.166Z,7.32
2023-05-11T03:09:01.792Z,7.19
2023-05-11T03:11:30.602Z,7.18
2023-05-11T03:13:58.598Z,7.09
2023-05-11T03:16:26.775Z,7.16
2023-05-11T03:18:55.499Z,7.10
2023-05-11T03:21:24.449Z,7.05
2023-05-11T03:23:51.609Z,7.05
2023-05-11T03:26:21.337Z,7.00
2023-05-11T03:28:50.885Z,6.95
2023-05-11T03:31:18.790Z,6.97
2023-05-11T03:33:45.549Z,6.87
2023-05-11T03:36:13.594Z,6.83
2023-05-11T03:38:41.215Z,6.86
2023-05-11T03:41:15.823Z,6.77
2023-05-11T03:43:48.869Z,6.86
2023-05-11T03:46:21.155Z,6.80
2023-05-11T03:48:48.602Z,6.80
2023-05-11T03:51:19.998Z,6.77
2023-05-11T03:53:47.504Z,6.74
2023-05-11T03:56:14.223Z,6.68
2023-05-11T03:58:41.574Z,6.70
2023-05-11T04:01:11.626Z,6.72
2023-05-11T04:03:52.889Z,6.70
2023-05-11T04:06:20.442Z,6.68
2023-05-11T04:08:52.752Z,6.89
2023-05-11T04:11:19.323Z,6.77
2023-05-11T04:13:46.132Z,6.88
2023-05-11T04:16:13.007Z,6.78
2023-05-11T04:18:39.965Z,6.72
2023-05-11T04:21:06.598Z,6.74
2023-05-11T04:23:33.515Z,6.66
2023-05-11T04:26:00.287Z,6.63
2023-05-11T04:28:28.071Z,6.66
2023-05-11T04:30:56.030Z,6.72
2023-05-11T04:33:24.097Z,6.69
2023-05-11T04:35:52.309Z,6.62
2023-05-11T04:38:20.088Z,6.68
2023-05-11T04:40:47.939Z,6.63
2023-05-11T04:43:16.064Z,6.72
2023-05-11T04:45:47.713Z,6.82
2023-05-11T04:48:14.736Z,6.78
2023-05-11T04:50:41.552Z,6.84
2023-05-11T04:53:08.649Z,6.76
2023-05-11T04:55:35.430Z,6.84
2023-05-11T04:58:02.198Z,6.80
2023-05-11T05:00:28.938Z,6.84
2023-05-11T05:02:55.697Z,6.83
2023-05-11T05:05:22.505Z,6.81
2023-05-11T05:07:49.204Z,6.78
2023-05-11T05:10:17.262Z,6.73
2023-05-11T05:12:44.138Z,6.76
2023-05-11T05:15:11.532Z,6.81
2023-05-11T05:17:38.265Z,6.87
2023-05-11T05:20:28.772Z,6.91
2023-05-11T05:22:55.517Z,6.82
2023-05-11T05:25:23.537Z,6.89
2023-05-11T05:27:50.122Z,6.89
2023-05-11T05:30:19.151Z,6.99
2023-05-11T05:32:46.734Z,6.96
2023-05-11T05:35:13.315Z,6.89
2023-05-11T05:37:42.034Z,6.86
2023-05-11T05:40:09.132Z,6.89
2023-05-11T05:42:41.369Z,6.84
2023-05-11T05:45:12.579Z,6.89
2023-05-11T05:47:41.855Z,6.90
2023-05-11T05:50:08.895Z,6.93
2023-05-11T05:52:35.666Z,7.02
2023-05-11T05:55:02.984Z,6.97
2023-05-11T05:57:30.628Z,6.91
2023-05-11T05:59:57.842Z,6.91
2023-05-11T06:02:24.608Z,7.00
2023-05-11T06:04:51.374Z,7.01
2023-05-11T06:07:18.041Z,6.99
2023-05-11T06:09:44.803Z,6.92
2023-05-11T06:12:11.481Z,6.95
2023-05-11T06:14:43.037Z,6.93
2023-05-11T06:17:09.639Z,7.00
2023-05-11T06:19:36.918Z,6.94
2023-05-11T06:22:06.337Z,7.01
2023-05-11T06:24:34.415Z,7.05
2023-05-11T06:27:01.140Z,7.13
2023-05-11T06:29:27.805Z,7.12
2023-05-11T06:31:56.104Z,7.15
2023-05-11T06:34:23.634Z,7.16
2023-05-11T06:36:51.749Z,7.11
2023-05-11T06:39:18.450Z,7.11
2023-05-11T06:41:45.000Z,7.13
2023-05-11T06:44:13.035Z,7.19
2023-05-11T06:46:43.180Z,7.13
2023-05-11T06:49:09.904Z,7.15
2023-05-11T06:51:36.749Z,7.21
2023-05-11T06:54:03.701Z,7.11
2023-05-11T06:56:32.011Z,7.15
2023-05-11T06:58:59.010Z,7.22
2023-05-11T07:01:25.894Z,7.22
2023-05-11T07:03:54.954Z,7.33
2023-05-11T07:06:21.929Z,7.38
2023-05-11T07:08:48.519Z,7.25
2023-05-11T07:11:15.530Z,7.31
2023-05-11T07:13:42.470Z,7.27
2023-05-11T07:16:09.032Z,7.33
2023-05-11T07:18:35.766Z,7.37
2023-05-11T07:21:02.437Z,7.37
2023-05-11T07:23:29.071Z,7.34
2023-05-11T07:25:57.483Z,7.38
2023-05-11T07:28:24.463Z,7.38
2023-05-11T07:30:51.162Z,7.42
2023-05-11T07:33:17.716Z,7.53
2023-05-11T07:35:44.398Z,7.47
2023-05-11T07:38:11.952Z,7.58
2023-05-11T07:40:38.537Z,7.63
2023-05-11T07:43:05.387Z,7.60
2023-05-11T07:45:31.920Z,7.54
2023-05-11T07:47:58.642Z,7.62
2023-05-11T07:50:25.607Z,7.75
2023-05-11T07:52:52.503Z,7.85
2023-05-11T07:55:20.498Z,7.79
2023-05-11T07:57:47.261Z,7.63
2023-05-11T08:00:14.371Z,7.61
2023-05-11T08:02:41.027Z,7.56
2023-05-11T08:05:08.934Z,7.69
2023-05-11T08:07:35.564Z,7.79
2023-05-11T08:10:02.137Z,7.76
2023-05-11T08:12:28.913Z,7.78
2023-05-11T08:14:55.475Z,7.86
2023-05-11T08:17:22.064Z,7.94
2023-05-11T08:19:48.658Z,8.12
2023-05-11T08:22:15.453Z,8.13
2023-05-11T08:24:42.345Z,8.23
2023-05-11T08:27:09.261Z,8.34
2023-05-11T08:29:35.950Z,8.30
2023-05-11T08:32:02.503Z,8.35
2023-05-11T08:34:29.181Z,8.29
2023-05-11T08:36:56.072Z,8.38
2023-05-11T08:39:38.950Z,8.38
2023-05-11T08:42:10.246Z,8.30
2023-05-11T08:44:38.543Z,8.45
2023-05-11T08:47:21.882Z,8.23
2023-05-11T08:49:51.791Z,8.32
2023-05-11T08:52:19.187Z,8.39
2023-05-11T08:54:46.736Z,8.52
2023-05-11T08:57:14.249Z,8.40
2023-05-11T08:59:44.433Z,8.24
2023-05-11T09:02:15.863Z,8.31
2023-05-11T09:04:46.010Z,8.35
2023-05-11T09:07:18.512Z,8.51
2023-05-11T09:09:47.223Z,8.48
2023-05-11T09:12:14.209Z,8.44
2023-05-11T09:14:40.878Z,8.39
2023-05-11T09:17:07.681Z,8.58
2023-05-11T09:19:34.523Z,8.49
2023-05-11T09:22:01.261Z,8.60
2023-05-11T09:24:28.141Z,8.71
2023-05-11T09:27:10.045Z,8.81
2023-05-11T09:29:36.605Z,9.01
2023-05-11T09:32:03.353Z,8.88
2023-05-11T09:34:29.948Z,8.90
2023-05-11T09:36:57.340Z,9.11
2023-05-11T09:39:39.895Z,9.14
2023-05-11T09:42:18.960Z,9.14
2023-05-11T09:44:46.965Z,9.23
2023-05-11T09:47:16.784Z,9.40
2023-05-11T09:49:45.732Z,9.40
2023-05-11T09:52:17.476Z,9.36
2023-05-11T09:54:48.621Z,9.39
2023-05-11T09:57:31.862Z,9.44
2023-05-11T10:00:00.268Z,9.27
2023-05-11T10:02:33.578Z,9.37
2023-05-11T10:05:01.700Z,9.19
2023-05-11T10:07:34.760Z,9.30
2023-05-11T10:10:06.620Z,9.10
2023-05-11T10:12:42.913Z,9.17
2023-05-11T10:15:44.460Z,9.15
2023-05-11T10:18:11.234Z,9.14
2023-05-11T10:20:39.145Z,9.21
2023-05-11T10:23:06.286Z,9.08
2023-05-11T10:25:34.072Z,9.11
2023-05-11T10:28:00.984Z,8.96
2023-05-11T10:30:28.110Z,9.00
2023-05-11T10:32:55.783Z,9.03
2023-05-11T10:35:22.792Z,9.09
2023-05-11T10:37:50.526Z,8.99
2023-05-11T10:40:17.535Z,9.06
2023-05-11T10:43:06.199Z,9.01
2023-05-11T10:45:54.533Z,8.98
2023-05-11T10:48:32.905Z,8.89
2023-05-11T10:51:30.643Z,8.99
2023-05-11T10:54:12.429Z,9.06
2023-05-11T10:57:02.140Z,9.07
2023-05-11T10:59:38.019Z,9.26
2023-05-11T11:02:04.809Z,9.15
2023-05-11T11:04:44.654Z,9.18
2023-05-11T11:07:13.199Z,9.28
2023-05-11T11:09:56.338Z,9.40
2023-05-11T11:12:27.502Z,9.42
2023-05-11T11:15:05.404Z,9.48
2023-05-11T11:17:32.944Z,9.58
2023-05-11T11:20:01.346Z,9.71
2023-05-11T11:22:41.536Z,9.52
2023-05-11T11:25:09.901Z,9.51
2023-05-11T11:27:48.886Z,9.32
2023-05-11T11:30:17.475Z,9.32
2023-05-11T11:32:46.212Z,9.34
2023-05-11T11:35:41.315Z,9.40
2023-05-11T11:38:09.537Z,9.45
2023-05-11T11:40:49.396Z,9.53
2023-05-11T11:43:19.734Z,9.44
2023-05-11T11:46:00.250Z,9.47
2023-05-11T11:48:38.090Z,9.49
2023-05-11T11:51:13.807Z,9.53
2023-05-11T11:53:44.574Z,9.40
2023-05-11T11:56:13.916Z,9.39
2023-05-11T11:58:40.390Z,9.48
2023-05-11T12:01:17.146Z,9.53
2023-05-11T12:03:46.811Z,9.25
2023-05-11T12:06:14.264Z,9.29
2023-05-11T12:08:42.745Z,9.30
2023-05-11T12:11:09.438Z,9.34
2023-05-11T12:13:36.046Z,9.39
2023-05-11T12:16:16.196Z,9.47
2023-05-11T12:18:53.539Z,9.47
2023-05-11T12:21:22.046Z,9.45
2023-05-11T12:23:55.612Z,9.39
2023-05-11T12:26:24.142Z,9.48
2023-05-11T12:28:51.641Z,9.56
2023-05-11T12:31:19.297Z,9.77
2023-05-11T12:33:50.642Z,9.81
2023-05-11T12:36:18.042Z,9.87
2023-05-11T12:38:49.154Z,9.96
2023-05-11T12:41:22.553Z,9.87
2023-05-11T12:43:54.318Z,9.75
2023-05-11T12:46:22.526Z,9.80
2023-05-11T12:48:50.718Z,9.72
2023-05-11T12:51:47.086Z,9.71
2023-05-11T12:54:25.896Z,9.93
2023-05-11T12:56:52.456Z,9.90
2023-05-11T12:59:39.229Z,9.96
2023-05-11T13:02:21.788Z,10.13
2023-05-11T13:04:48.771Z,9.97
2023-05-11T13:07:25.036Z,9.78
2023-05-11T13:09:59.384Z,9.79
2023-05-11T13:12:26.518Z,9.64
2023-05-11T13:15:06.989Z,9.63
2023-05-11T13:17:36.689Z,9.81
2023-05-11T13:20:22.279Z,9.87
2023-05-11T13:22:50.690Z,9.96
2023-05-11T13:25:20.978Z,10.01
2023-05-11T13:27:48.148Z,10.00
2023-05-11T13:30:14.985Z,10.07
2023-05-11T13:32:41.731Z,10.04
2023-05-11T13:35:08.823Z,10.08
2023-05-11T13:37:35.436Z,9.98
2023-05-11T13:40:02.097Z,9.98
2023-05-11T13:42:29.200Z,9.98
2023-05-11T13:44:55.816Z,10.07
2023-05-11T13:47:22.669Z,10.26
2023-05-11T13:49:49.219Z,10.38
2023-05-11T13:52:15.865Z,10.33
2023-05-11T13:54:42.480Z,10.64
2023-05-11T13:57:09.309Z,10.70
2023-05-11T13:59:35.868Z,10.64
2023-05-11T14:02:02.668Z,10.75
2023-05-11T14:04:29.340Z,10.89
2023-05-11T14:06:56.149Z,10.87
2023-05-11T14:09:23.433Z,10.92
2023-05-11T14:11:50.611Z,11.08
2023-05-11T14:14:17.517Z,11.12
2023-05-11T14:16:44.839Z,11.18
2023-05-11T14:19:11.647Z,11.04
2023-05-11T14:21:38.357Z,10.90
2023-05-11T14:24:11.977Z,10.56
2023-05-11T14:26:40.222Z,10.39
2023-05-11T14:29:06.980Z,10.40
2023-05-11T14:31:35.111Z,10.28
2023-05-11T14:34:03.624Z,10.33
2023-05-11T14:36:31.745Z,10.41
2023-05-11T14:38:58.437Z,10.51
2023-05-11T14:41:25.671Z,10.45
2023-05-11T14:43:52.537Z,10.09
2023-05-11T14:46:19.580Z,10.25
2023-05-11T14:48:46.437Z,10.38
2023-05-11T14:51:12.996Z,10.28
2023-05-11T14:53:40.097Z,10.28
2023-05-11T14:56:07.158Z,10.41
2023-05-11T14:58:33.882Z,10.51
2023-05-11T15:01:00.848Z,10.39
2023-05-11T15:03:27.934Z,9.95
2023-05-11T15:05:54.646Z,10.02
2023-05-11T15:08:29.588Z,10.12
2023-05-11T15:10:57.347Z,10.11
2023-05-11T15:13:24.195Z,10.07
2023-05-11T15:15:51.676Z,10.12
2023-05-11T15:18:19.064Z,10.20
2023-05-11T15:20:46.526Z,10.26
2023-05-11T15:23:16.757Z,10.35
2023-05-11T15:25:44.685Z,10.35
2023-05-11T15:28:11.742Z,10.20
2023-05-11T15:30:38.966Z,10.06
2023-05-11T15:33:05.605Z,10.11
2023-05-11T15:35:34.758Z,9.99
2023-05-11T15:38:01.549Z,9.84
2023-05-11T15:40:29.322Z,9.87
2023-05-11T15:42:58.478Z,9.76
2023-05-11T15:45:26.153Z,9.85
2023-05-11T15:47:53.963Z,9.92
2023-05-11T15:50:21.422Z,10.07
2023-05-11T15:52:48.256Z,10.09
2023-05-11T15:55:15.039Z,10.18
2023-05-11T15:57:41.851Z,10.16
2023-05-11T16:00:10.515Z,10.21
2023-05-11T16:02:37.284Z,10.14
2023-05-11T16:05:04.183Z,10.17
2023-05-11T16:07:31.456Z,10.11
2023-05-11T16:09:58.043Z,10.06
2023-05-11T16:12:24.854Z,10.02
2023-05-11T16:14:51.448Z,10.05
2023-05-11T16:17:18.429Z,10.11
2023-05-11T16:19:45.060Z,10.05
2023-05-11T16:22:12.106Z,10.11
2023-05-11T16:24:38.819Z,10.12
2023-05-11T16:27:05.811Z,10.13
2023-05-11T16:29:32.434Z,10.13
2023-05-11T16:31:59.081Z,10.13
2023-05-11T16:34:26.953Z,10.12
2023-05-11T16:36:53.748Z,10.14
2023-05-11T16:39:20.393Z,10.17
2023-05-11T16:41:46.945Z,10.06
2023-05-11T16:44:13.629Z,10.06
2023-05-11T16:46:40.422Z,9.89
2023-05-11T16:49:07.192Z,9.79
2023-05-11T16:51:34.318Z,9.61
2023-05-11T16:54:00.900Z,9.51
2023-05-11T16:56:27.577Z,9.48
2023-05-11T16:58:54.162Z,9.52
2023-05-11T17:01:20.791Z,9.58
2023-05-11T17:03:47.672Z,9.37
2023-05-11T17:06:18.971Z,9.39
2023-05-11T17:08:47.024Z,9.33
2023-05-11T17:11:14.439Z,9.26
2023-05-11T17:13:41.268Z,9.29
2023-05-11T17:16:08.070Z,9.36
2023-05-11T17:18:34.881Z,9.40
2023-05-11T17:21:01.690Z,9.42
2023-05-11T17:23:28.698Z,9.46
2023-05-11T17:25:55.334Z,9.47
2023-05-11T17:28:22.201Z,9.51
2023-05-11T17:30:52.462Z,9.49
2023-05-11T17:33:19.307Z,9.47
2023-05-11T17:35:46.238Z,9.41
2023-05-11T17:38:12.896Z,9.39
2023-05-11T17:40:39.588Z,9.40
2023-05-11T17:43:06.470Z,9.41
2023-05-11T17:45:33.429Z,9.33
2023-05-11T17:48:00.012Z,9.31
2023-05-11T17:50:27.088Z,9.24
2023-05-11T17:52:53.671Z,9.22
2023-05-11T17:55:20.967Z,9.22
2023-05-11T17:57:48.428Z,9.13
2023-05-11T18:00:15.541Z,9.09
2023-05-11T18:02:42.258Z,9.04
2023-05-11T18:05:09.445Z,9.01
2023-05-11T18:07:36.436Z,8.92
2023-05-11T18:10:03.830Z,8.83
2023-05-11T18:12:32.124Z,8.73
2023-05-11T18:14:59.790Z,8.66
2023-05-11T18:17:26.571Z,8.70
2023-05-11T18:19:53.237Z,8.63
2023-05-11T18:22:19.948Z,8.55
2023-05-11T18:24:46.519Z,8.53
2023-05-11T18:27:13.124Z,8.55
2023-05-11T18:29:41.009Z,8.56
2023-05-11T18:32:07.645Z,8.54
2023-05-11T18:34:34.553Z,8.53
2023-05-11T18:37:01.756Z,8.54
2023-05-11T18:39:28.588Z,8.54
2023-05-11T18:41:55.148Z,8.45
2023-05-11T18:44:21.695Z,8.40
2023-05-11T18:46:48.458Z,8.39
2023-05-11T18:49:15.149Z,8.41
2023-05-11T18:51:41.829Z,8.41
2023-05-11T18:54:08.764Z,8.40
2023-05-11T18:56:35.635Z,8.44
2023-05-11T18:59:02.381Z,8.42
2023-05-11T19:01:40.266Z,8.39
2023-05-11T19:04:14.533Z,8.41
2023-05-11T19:06:41.180Z,8.40
2023-05-11T19:09:07.853Z,8.45
2023-05-11T19:11:35.373Z,8.52
2023-05-11T19:14:02.237Z,8.50
2023-05-11T19:16:32.496Z,8.47
2023-05-11T19:18:59.554Z,8.47
2023-05-11T19:21:26.290Z,8.47
2023-05-11T19:23:52.884Z,8.48
2023-05-11T19:26:19.406Z,8.50
2023-05-11T19:28:46.150Z,8.53
2023-05-11T19:31:12.729Z,8.53
2023-05-11T19:33:39.443Z,8.53
2023-05-11T19:36:06.176Z,8.60
2023-05-11T19:38:35.279Z,8.56
2023-05-11T19:41:02.070Z,8.52
2023-05-11T19:43:28.669Z,8.50
2023-05-11T19:45:55.463Z,8.49
2023-05-11T19:48:22.500Z,8.47
2023-05-11T19:50:49.120Z,8.47
2023-05-11T19:53:15.702Z,8.43
2023-05-11T19:55:42.310Z,8.42
2023-05-11T19:58:09.424Z,8.45
2023-05-11T20:00:36.166Z,8.42
2023-05-11T20:03:03.384Z,8.38
2023-05-11T20:05:30.144Z,8.38
2023-05-11T20:07:56.765Z,8.40
2023-05-11T20:10:23.387Z,8.38
2023-05-11T20:12:51.329Z,8.37
2023-05-11T20:15:18.481Z,8.32
2023-05-11T20:17:45.307Z,8.31
2023-05-11T20:20:12.352Z,8.28
2023-05-11T20:22:38.985Z,8.28
2023-05-11T20:25:13.941Z,8.28
2023-05-11T20:27:44.447Z,8.26
2023-05-11T20:30:11.634Z,8.24
2023-05-11T20:32:38.245Z,8.24
2023-05-11T20:35:05.795Z,8.26
2023-05-11T20:37:32.412Z,8.25
2023-05-11T20:39:59.130Z,8.30
2023-05-11T20:42:27.084Z,8.28
2023-05-11T20:44:53.866Z,8.29
2023-05-11T20:47:20.439Z,8.28
2023-05-11T20:49:47.811Z,8.30
2023-05-11T20:52:14.502Z,8.32
2023-05-11T20:54:41.039Z,8.33
2023-05-11T20:57:08.312Z,8.32
2023-05-11T21:02:04.864Z,8.33
2023-05-11T21:04:31.604Z,8.29
2023-05-11T21:06:58.247Z,8.28
2023-05-11T21:09:25.578Z,8.30
2023-05-11T21:11:52.256Z,8.32
2023-05-11T21:14:18.818Z,8.28
2023-05-11T21:16:45.633Z,8.23
2023-05-11T21:19:12.298Z,8.18
2023-05-11T21:21:38.960Z,8.18
2023-05-11T21:24:06.136Z,8.21
2023-05-11T21:26:32.852Z,8.21
2023-05-11T21:28:59.985Z,8.20
2023-05-11T21:31:27.118Z,8.20
2023-05-11T21:33:53.903Z,8.17
2023-05-11T21:36:22.077Z,8.20
2023-05-11T21:38:48.687Z,8.22
2023-05-11T21:41:15.346Z,8.18
2023-05-11T21:43:41.911Z,8.16
2023-05-11T21:46:08.515Z,8.11
2023-05-11T21:48:35.163Z,8.15
2023-05-11T21:51:01.850Z,8.14
2023-05-11T21:53:28.459Z,8.16
2023-05-11T21:55:55.133Z,8.16
2023-05-11T21:58:22.075Z,8.11
2023-05-11T22:00:48.796Z,8.15
2023-05-11T22:03:15.633Z,8.14
2023-05-11T22:05:42.397Z,8.12
2023-05-11T22:08:14.865Z,8.18
2023-05-11T22:10:43.498Z,8.16
2023-05-11T22:13:10.492Z,8.15
2023-05-11T22:15:37.254Z,8.18
2023-05-11T22:18:05.116Z,8.18
2023-05-11T22:20:31.932Z,8.17
2023-05-11T22:22:59.255Z,8.21
2023-05-11T22:25:26.512Z,8.22
2023-05-11T22:27:53.307Z,8.25
2023-05-11T22:30:20.386Z,8.26
2023-05-11T22:32:47.383Z,8.30
2023-05-11T22:35:14.367Z,8.32
2023-05-11T22:37:40.985Z,8.31
2023-05-11T22:40:08.815Z,8.36
2023-05-11T22:42:35.726Z,8.36
2023-05-11T22:45:02.291Z,8.33
2023-05-11T22:47:29.552Z,8.30
2023-05-11T22:49:56.270Z,8.34
2023-05-11T22:52:23.016Z,8.34
2023-05-11T22:54:57.963Z,8.32
2023-05-11T22:57:26.236Z,8.35
2023-05-11T22:59:52.927Z,8.33
2023-05-11T23:02:19.846Z,8.35
2023-05-11T23:04:53.326Z,8.35
2023-05-11T23:07:20.024Z,8.33
2023-05-11T23:09:46.835Z,8.31
2023-05-11T23:12:13.503Z,8.38
2023-05-11T23:14:40.124Z,8.34
2023-05-11T23:17:06.722Z,8.29
2023-05-11T23:19:33.763Z,8.26
2023-05-11T23:22:00.785Z,8.27
2023-05-11T23:24:28.965Z,8.28
2023-05-11T23:26:55.618Z,8.26
2023-05-11T23:29:22.222Z,8.18
2023-05-11T23:31:49.356Z,8.16
2023-05-11T23:34:15.960Z,8.17
2023-05-11T23:36:42.693Z,8.16
2023-05-11T23:39:09.676Z,8.10
2023-05-11T23:41:36.370Z,8.05
2023-05-11T23:44:03.277Z,8.05
2023-05-11T23:46:29.998Z,8.02
2023-05-11T23:48:56.784Z,8.02
2023-05-11T23:51:23.315Z,8.02
2023-05-11T23:53:49.913Z,8.06
2023-05-11T23:56:16.562Z,8.15
2023-05-11T23:58:45.793Z,8.08
